createdAt,value
2023-04-15T00:02:16.769Z,6.74
2023-04-15T00:04:59.986Z,6.68
2023-04-15T00:07:45.786Z,6.63
2023-04-15T00:10:29.407Z,6.60
2023-04-15T00:13:12.685Z,6.53
2023-04-15T00:15:56.262Z,6.53
2023-04-15T00:18:39.891Z,6.40
2023-04-15T00:21:23.098Z,6.45
2023-04-15T00:24:07.802Z,6.56
2023-04-15T00:26:51.036Z,6.56
2023-04-15T00:29:35.067Z,6.54
2023-04-15T00:32:18.467Z,6.52
2023-04-15T00:35:02.401Z,6.47
2023-04-15T00:37:46.417Z,6.41
2023-04-15T00:40:31.302Z,6.39
2023-04-15T00:43:14.514Z,6.45
2023-04-15T00:46:00.347Z,6.42
2023-04-15T00:48:44.939Z,6.50
2023-04-15T00:51:28.156Z,6.49
2023-04-15T00:54:11.686Z,6.55
2023-04-15T00:56:56.722Z,6.52
2023-04-15T00:59:40.183Z,6.48
2023-04-15T01:02:24.312Z,6.44
2023-04-15T01:05:08.531Z,6.39
2023-04-15T01:07:52.014Z,6.33
2023-04-15T01:10:35.448Z,6.29
2023-04-15T01:13:21.575Z,6.12
2023-04-15T01:16:04.847Z,6.03
2023-04-15T01:18:48.570Z,5.91
2023-04-15T01:21:32.004Z,5.74
2023-04-15T01:24:19.420Z,5.70
2023-04-15T01:27:05.633Z,5.62
2023-04-15T01:29:49.015Z,5.61
2023-04-15T01:32:32.688Z,5.64
2023-04-15T01:35:15.914Z,5.63
2023-04-15T01:38:05.085Z,5.61
2023-04-15T01:40:48.317Z,5.56
2023-04-15T01:43:33.181Z,5.52
2023-04-15T01:46:16.949Z,5.50
2023-04-15T01:49:00.308Z,5.48
2023-04-15T01:51:43.500Z,5.37
2023-04-15T01:54:27.916Z,5.39
2023-04-15T01:57:11.258Z,5.35
2023-04-15T01:59:56.261Z,5.40
2023-04-15T02:02:40.159Z,5.42
2023-04-15T02:05:23.474Z,5.40
2023-04-15T02:08:09.439Z,5.41
2023-04-15T02:10:53.002Z,5.36
2023-04-15T02:13:36.566Z,5.37
2023-04-15T02:16:21.471Z,5.35
2023-04-15T02:19:04.932Z,5.32
2023-04-15T02:21:48.107Z,5.23
2023-04-15T02:24:32.176Z,5.19
2023-04-15T02:27:18.523Z,5.16
2023-04-15T02:30:01.868Z,5.14
2023-04-15T02:32:46.704Z,5.18
2023-04-15T02:35:30.046Z,5.05
2023-04-15T02:38:14.340Z,5.00
2023-04-15T02:40:57.865Z,4.97
2023-04-15T02:43:41.129Z,4.91
2023-04-15T02:46:24.445Z,4.85
2023-04-15T02:49:09.637Z,4.70
2023-04-15T02:51:53.003Z,4.80
2023-04-15T02:54:36.065Z,4.77
2023-04-15T02:57:19.353Z,4.71
2023-04-15T03:00:02.487Z,4.71
2023-04-15T03:02:47.416Z,4.72
2023-04-15T03:05:32.266Z,4.60
2023-04-15T03:08:16.112Z,4.37
2023-04-15T03:11:01.070Z,4.35
2023-04-15T03:13:44.508Z,4.30
2023-04-15T03:16:28.089Z,4.09
2023-04-15T03:19:11.424Z,4.04
2023-04-15T03:21:56.522Z,4.12
2023-04-15T03:24:39.682Z,3.96
2023-04-15T03:27:24.314Z,3.94
2023-04-15T03:30:09.305Z,3.96
2023-04-15T03:32:53.581Z,3.78
2023-04-15T03:35:36.878Z,3.86
2023-04-15T03:38:21.686Z,4.00
2023-04-15T03:41:05.266Z,4.02
2023-04-15T03:43:48.657Z,4.09
2023-04-15T03:46:32.217Z,4.18
2023-04-15T03:49:16.449Z,4.14
2023-04-15T03:52:00.874Z,4.19
2023-04-15T03:54:46.137Z,4.27
2023-04-15T03:57:30.913Z,4.27
2023-04-15T04:00:14.355Z,4.35
2023-04-15T04:02:57.869Z,4.39
2023-04-15T04:05:41.605Z,4.46
2023-04-15T04:08:24.738Z,4.50
2023-04-15T04:11:10.548Z,4.69
2023-04-15T04:13:53.762Z,4.68
2023-04-15T04:16:37.458Z,4.73
2023-04-15T04:19:21.260Z,4.80
2023-04-15T04:22:04.718Z,4.95
2023-04-15T04:24:48.836Z,4.97
2023-04-15T04:27:33.492Z,4.99
2023-04-15T04:30:17.982Z,5.08
2023-04-15T04:33:01.336Z,5.14
2023-04-15T04:35:44.588Z,5.28
2023-04-15T04:38:27.709Z,5.41
2023-04-15T04:41:12.090Z,5.49
2023-04-15T04:43:56.722Z,5.49
2023-04-15T04:46:40.655Z,5.53
2023-04-15T04:49:25.380Z,5.72
2023-04-15T04:52:11.117Z,5.85
2023-04-15T04:54:55.431Z,5.95
2023-04-15T04:57:39.623Z,6.07
2023-04-15T05:00:24.799Z,6.17
2023-04-15T05:03:08.253Z,6.22
2023-04-15T05:05:52.031Z,6.35
2023-04-15T05:08:35.174Z,6.40
2023-04-15T05:11:20.748Z,6.50
2023-04-15T05:14:03.908Z,6.63
2023-04-15T05:16:50.894Z,6.84
2023-04-15T05:19:34.162Z,6.92
2023-04-15T05:22:17.312Z,7.10
2023-04-15T05:25:00.668Z,7.20
2023-04-15T05:27:44.118Z,7.33
2023-04-15T05:30:27.512Z,7.50
2023-04-15T05:33:13.766Z,7.70
2023-04-15T05:35:57.318Z,7.70
2023-04-15T05:38:43.326Z,7.96
2023-04-15T05:41:26.775Z,8.09
2023-04-15T05:44:10.212Z,8.33
2023-04-15T05:46:53.559Z,8.57
2023-04-15T05:49:38.920Z,9.03
2023-04-15T05:52:22.164Z,9.51
2023-04-15T05:55:06.644Z,9.90
2023-04-15T05:57:50.004Z,10.23
2023-04-15T06:00:33.250Z,10.63
2023-04-15T06:03:18.410Z,10.84
2023-04-15T06:06:05.903Z,11.09
2023-04-15T06:08:49.058Z,10.97
2023-04-15T06:11:32.968Z,11.16
2023-04-15T06:14:16.227Z,11.47
2023-04-15T06:16:59.286Z,11.65
2023-04-15T06:19:42.584Z,12.29
2023-04-15T06:22:27.180Z,12.79
2023-04-15T06:25:11.064Z,13.49
2023-04-15T06:27:54.093Z,13.35
2023-04-15T06:30:37.248Z,13.31
2023-04-15T06:33:20.336Z,13.88
2023-04-15T06:36:03.703Z,16.33
2023-04-15T06:38:48.279Z,19.15
2023-04-15T06:41:31.421Z,20.36
2023-04-15T06:44:14.690Z,21.13
2023-04-15T06:46:57.882Z,22.94
2023-04-15T06:49:41.427Z,23.22
2023-04-15T06:52:26.343Z,25.11
2023-04-15T06:55:11.593Z,25.80
2023-04-15T06:57:54.838Z,23.45
2023-04-15T07:00:39.353Z,24.98
2023-04-15T07:03:22.596Z,26.69
2023-04-15T07:06:07.218Z,29.54
2023-04-15T07:08:50.445Z,26.55
2023-04-15T07:11:34.953Z,31.18
2023-04-15T07:14:18.258Z,29.19
2023-04-15T07:17:01.484Z,31.13
2023-04-15T07:19:44.645Z,35.52
2023-04-15T07:22:28.047Z,35.76
2023-04-15T07:25:11.456Z,37.54
2023-04-15T07:27:56.510Z,38.57
2023-04-15T07:30:39.781Z,37.74
2023-04-15T07:33:23.940Z,38.41
2023-04-15T07:36:07.380Z,37.46
2023-04-15T07:38:50.434Z,37.83
2023-04-15T07:41:34.028Z,37.22
2023-04-15T07:44:18.690Z,31.96
2023-04-15T07:47:02.020Z,35.62
2023-04-15T07:49:45.901Z,37.04
2023-04-15T07:52:29.117Z,37.73
2023-04-15T07:55:12.589Z,36.47
2023-04-15T07:57:56.028Z,35.96
2023-04-15T08:00:40.799Z,39.88
2023-04-15T08:03:24.178Z,39.74
2023-04-15T08:06:09.503Z,41.63
2023-04-15T08:08:53.000Z,41.13
2023-04-15T08:11:36.646Z,39.18
2023-04-15T08:14:20.281Z,39.62
2023-04-15T08:17:05.720Z,43.77
2023-04-15T08:19:52.165Z,42.37
2023-04-15T08:22:35.702Z,43.96
2023-04-15T08:25:19.148Z,45.87
2023-04-15T08:28:07.213Z,45.48
2023-04-15T08:30:51.993Z,41.92
2023-04-15T08:33:37.072Z,42.91
2023-04-15T08:36:22.274Z,43.00
2023-04-15T08:39:06.247Z,41.15
2023-04-15T08:41:54.639Z,42.92
2023-04-15T08:44:38.536Z,41.40
2023-04-15T08:47:23.430Z,43.31
2023-04-15T08:50:12.013Z,44.41
2023-04-15T08:52:57.166Z,46.12
2023-04-15T08:55:46.656Z,47.90
2023-04-15T08:58:30.929Z,48.90
2023-04-15T09:01:14.823Z,41.66
2023-04-15T09:03:58.786Z,39.17
2023-04-15T09:06:43.250Z,41.69
2023-04-15T09:09:26.942Z,42.88
2023-04-15T09:12:10.777Z,40.87
2023-04-15T09:14:54.137Z,40.40
2023-04-15T09:17:43.231Z,39.22
2023-04-15T09:20:26.580Z,38.88
2023-04-15T09:23:17.769Z,40.16
2023-04-15T09:26:00.985Z,39.20
2023-04-15T09:28:44.464Z,38.57
2023-04-15T09:31:31.452Z,36.62
2023-04-15T09:34:14.850Z,35.77
2023-04-15T09:36:58.704Z,33.40
2023-04-15T09:39:51.109Z,32.27
2023-04-15T09:42:34.879Z,30.65
2023-04-15T09:45:18.047Z,29.46
2023-04-15T09:48:15.660Z,28.29
2023-04-15T09:51:02.695Z,27.27
2023-04-15T09:53:46.137Z,28.79
2023-04-15T09:56:39.616Z,29.28
2023-04-15T09:59:22.941Z,25.96
2023-04-15T10:02:07.870Z,25.24
2023-04-15T10:04:53.944Z,26.43
2023-04-15T10:07:37.124Z,25.46
2023-04-15T10:10:21.044Z,24.04
2023-04-15T10:13:06.058Z,26.46
2023-04-15T10:15:53.549Z,27.21
2023-04-15T10:18:39.307Z,28.36
2023-04-15T10:21:23.886Z,28.77
2023-04-15T10:24:08.658Z,27.96
2023-04-15T10:26:52.422Z,31.10
2023-04-15T10:29:38.991Z,36.57
2023-04-15T10:32:24.001Z,38.44
2023-04-15T10:35:09.630Z,38.52
2023-04-15T10:37:52.817Z,37.88
2023-04-15T10:40:35.951Z,37.30
2023-04-15T10:43:28.316Z,40.30
2023-04-15T10:46:13.486Z,38.61
2023-04-15T10:48:56.718Z,36.90
2023-04-15T10:51:42.731Z,35.37
2023-04-15T10:54:33.982Z,34.44
2023-04-15T10:57:22.810Z,33.70
2023-04-15T11:00:14.502Z,34.66
2023-04-15T11:03:00.633Z,36.19
2023-04-15T11:05:53.968Z,35.76
2023-04-15T11:08:55.861Z,36.08
2023-04-15T11:12:07.636Z,35.93
2023-04-15T11:14:54.327Z,33.89
2023-04-15T11:17:37.821Z,30.78
2023-04-15T11:20:22.987Z,29.76
2023-04-15T11:23:13.890Z,28.13
2023-04-15T11:25:59.577Z,26.98
2023-04-15T11:28:44.989Z,25.83
2023-04-15T11:31:30.472Z,25.42
2023-04-15T11:34:13.654Z,24.74
2023-04-15T11:37:00.534Z,24.31
2023-04-15T11:39:44.007Z,23.93
2023-04-15T11:42:36.249Z,22.97
2023-04-15T11:45:26.399Z,23.55
2023-04-15T11:48:11.769Z,23.95
2023-04-15T11:50:58.858Z,23.93
2023-04-15T11:53:47.976Z,23.64
2023-04-15T11:56:32.706Z,24.16
2023-04-15T11:59:15.884Z,24.20
2023-04-15T12:01:59.805Z,23.19
2023-04-15T12:04:45.716Z,23.67
2023-04-15T12:07:30.608Z,24.09
2023-04-15T12:10:20.446Z,24.19
2023-04-15T12:13:09.222Z,23.96
2023-04-15T12:15:53.333Z,23.57
2023-04-15T12:18:39.656Z,22.51
2023-04-15T12:21:24.224Z,23.15
2023-04-15T12:24:09.833Z,23.09
2023-04-15T12:26:57.410Z,22.87
2023-04-15T12:29:45.607Z,22.39
2023-04-15T12:32:29.299Z,22.64
2023-04-15T12:35:13.272Z,23.02
2023-04-15T12:37:57.658Z,22.51
2023-04-15T12:40:42.077Z,22.74
2023-04-15T12:43:27.839Z,22.61
2023-04-15T12:46:11.092Z,22.13
2023-04-15T12:48:54.986Z,22.03
2023-04-15T12:51:40.452Z,21.89
2023-04-15T12:54:23.768Z,21.87
2023-04-15T12:57:07.891Z,21.69
2023-04-15T12:59:54.181Z,21.88
2023-04-15T13:02:38.849Z,21.45
2023-04-15T13:05:22.568Z,21.59
2023-04-15T13:08:06.257Z,21.46
2023-04-15T13:10:49.367Z,21.17
2023-04-15T13:13:33.740Z,21.07
2023-04-15T13:16:24.301Z,21.16
2023-04-15T13:19:10.226Z,21.28
2023-04-15T13:21:53.325Z,20.83
2023-04-15T13:24:36.399Z,20.80
2023-04-15T13:27:19.517Z,20.87
2023-04-15T13:30:03.418Z,20.77
2023-04-15T13:32:50.401Z,20.75
2023-04-15T13:35:34.282Z,20.76
2023-04-15T13:38:17.359Z,20.79
2023-04-15T13:41:00.481Z,20.86
2023-04-15T13:43:43.559Z,20.93
2023-04-15T13:46:27.137Z,20.75
2023-04-15T13:49:11.679Z,20.92
2023-04-15T13:51:54.891Z,20.88
2023-04-15T13:54:38.426Z,20.30
2023-04-15T13:57:21.610Z,20.24
2023-04-15T14:00:06.199Z,20.13
2023-04-15T14:02:49.816Z,20.16
2023-04-15T14:05:35.702Z,20.27
2023-04-15T14:08:19.198Z,20.09
2023-04-15T14:11:05.918Z,19.90
2023-04-15T14:13:48.959Z,19.91
2023-04-15T14:16:33.894Z,19.83
2023-04-15T14:19:20.923Z,19.94
2023-04-15T14:22:05.774Z,19.71
2023-04-15T14:24:52.196Z,19.08
2023-04-15T14:27:36.131Z,19.12
2023-04-15T14:30:20.250Z,19.22
2023-04-15T14:33:03.852Z,19.45
2023-04-15T14:35:49.668Z,19.27
2023-04-15T14:38:39.074Z,19.12
2023-04-15T14:41:23.454Z,18.95
2023-04-15T14:44:09.696Z,18.74
2023-04-15T14:46:53.580Z,18.60
2023-04-15T14:49:36.991Z,18.53
2023-04-15T14:52:20.476Z,18.50
2023-04-15T14:55:05.336Z,18.59
2023-04-15T14:57:51.524Z,18.61
2023-04-15T15:00:39.893Z,18.49
2023-04-15T15:03:25.970Z,18.18
2023-04-15T15:06:10.659Z,17.95
2023-04-15T15:08:55.742Z,17.95
2023-04-15T15:11:40.573Z,17.83
2023-04-15T15:14:24.184Z,17.63
2023-04-15T15:17:07.463Z,17.53
2023-04-15T15:19:52.914Z,17.37
2023-04-15T15:22:36.073Z,17.12
2023-04-15T15:25:19.232Z,17.10
2023-04-15T15:28:04.066Z,16.94
2023-04-15T15:30:48.192Z,16.80
2023-04-15T15:33:32.461Z,16.62
2023-04-15T15:36:15.751Z,16.48
2023-04-15T15:39:00.290Z,16.51
2023-04-15T15:41:44.421Z,16.32
2023-04-15T15:44:29.400Z,16.28
2023-04-15T15:47:12.916Z,16.18
2023-04-15T15:49:56.493Z,16.25
2023-04-15T15:52:40.005Z,16.19
2023-04-15T15:55:26.044Z,16.17
2023-04-15T15:58:09.119Z,16.21
2023-04-15T16:00:54.237Z,16.13
2023-04-15T16:03:37.799Z,16.01
2023-04-15T16:06:21.190Z,16.03
2023-04-15T16:09:04.734Z,16.04
2023-04-15T16:11:48.486Z,16.03
2023-04-15T16:14:31.743Z,16.02
2023-04-15T16:17:16.521Z,15.97
2023-04-15T16:20:01.381Z,15.89
2023-04-15T16:22:44.861Z,15.80
2023-04-15T16:25:28.234Z,15.82
2023-04-15T16:28:25.204Z,15.88
2023-04-15T16:31:09.579Z,15.71
2023-04-15T16:33:56.004Z,15.55
2023-04-15T16:36:41.080Z,15.47
2023-04-15T16:39:24.821Z,15.44
2023-04-15T16:42:08.707Z,15.39
2023-04-15T16:44:52.630Z,15.29
2023-04-15T16:47:35.886Z,15.23
2023-04-15T16:50:23.073Z,15.03
2023-04-15T16:53:06.824Z,14.93
2023-04-15T16:55:50.388Z,14.92
2023-04-15T16:58:33.523Z,14.80
2023-04-15T17:01:17.315Z,14.65
2023-04-15T17:04:00.646Z,14.47
2023-04-15T17:06:46.458Z,14.36
2023-04-15T17:09:31.241Z,14.26
2023-04-15T17:12:15.482Z,14.12
2023-04-15T17:14:58.675Z,13.95
2023-04-15T17:17:41.879Z,13.89
2023-04-15T17:20:25.007Z,13.88
2023-04-15T17:23:10.522Z,13.79
2023-04-15T17:25:54.125Z,13.71
2023-04-15T17:28:37.438Z,13.72
2023-04-15T17:31:20.870Z,13.69
2023-04-15T17:34:09.291Z,13.67
2023-04-15T17:36:55.407Z,13.58
2023-04-15T17:39:40.199Z,13.49
2023-04-15T17:42:24.661Z,13.41
2023-04-15T17:45:09.052Z,13.35
2023-04-15T17:47:52.813Z,13.22
2023-04-15T17:50:36.359Z,13.11
2023-04-15T17:53:20.049Z,13.11
2023-04-15T17:56:04.805Z,12.93
2023-04-15T17:58:48.222Z,12.83
2023-04-15T18:01:32.879Z,12.74
2023-04-15T18:04:16.386Z,12.72
2023-04-15T18:06:59.593Z,12.72
2023-04-15T18:09:44.434Z,12.60
2023-04-15T18:12:28.920Z,12.53
2023-04-15T18:15:14.723Z,12.46
2023-04-15T18:17:58.166Z,12.35
2023-04-15T18:20:41.431Z,12.30
2023-04-15T18:23:24.787Z,12.23
2023-04-15T18:26:08.410Z,12.23
2023-04-15T18:28:56.100Z,12.22
2023-04-15T18:31:39.333Z,12.18
2023-04-15T18:34:22.689Z,12.17
2023-04-15T18:37:07.104Z,12.11
2023-04-15T18:39:50.396Z,12.11
2023-04-15T18:42:33.580Z,12.03
2023-04-15T18:45:22.686Z,11.93
2023-04-15T18:48:06.825Z,11.91
2023-04-15T18:50:54.002Z,11.81
2023-04-15T18:53:37.166Z,11.84
2023-04-15T18:56:20.441Z,11.77
2023-04-15T18:59:08.320Z,11.67
2023-04-15T19:02:09.163Z,11.60
2023-04-15T19:04:52.662Z,11.56
2023-04-15T19:07:36.619Z,11.51
2023-04-15T19:10:20.022Z,11.44
2023-04-15T19:13:05.162Z,11.29
2023-04-15T19:15:48.655Z,11.28
2023-04-15T19:18:33.253Z,11.24
2023-04-15T19:21:16.702Z,11.27
2023-04-15T19:24:01.570Z,11.25
2023-04-15T19:26:46.337Z,11.32
2023-04-15T19:29:29.649Z,11.26
2023-04-15T19:32:14.220Z,11.33
2023-04-15T19:34:58.821Z,11.52
2023-04-15T19:37:42.376Z,11.57
2023-04-15T19:40:25.767Z,11.57
2023-04-15T19:43:09.106Z,11.43
2023-04-15T19:45:54.793Z,11.45
2023-04-15T19:48:39.276Z,11.48
2023-04-15T19:51:23.978Z,11.43
2023-04-15T19:54:07.488Z,11.47
2023-04-15T19:56:50.791Z,11.46
2023-04-15T19:59:34.014Z,11.53
2023-04-15T20:02:17.672Z,11.50
2023-04-15T20:05:01.508Z,11.47
2023-04-15T20:07:48.584Z,11.43
2023-04-15T20:10:32.756Z,11.50
2023-04-15T20:13:16.311Z,11.54
2023-04-15T20:16:00.016Z,11.54
2023-04-15T20:18:43.162Z,11.58
2023-04-15T20:21:26.368Z,11.61
2023-04-15T20:24:11.122Z,11.54
2023-04-15T20:26:54.365Z,11.45
2023-04-15T20:29:37.906Z,11.38
2023-04-15T20:32:21.248Z,11.28
2023-04-15T20:35:05.741Z,11.20
2023-04-15T20:37:50.302Z,11.13
2023-04-15T20:40:35.063Z,11.21
2023-04-15T20:43:20.642Z,11.18
2023-04-15T20:46:13.830Z,11.05
2023-04-15T20:49:04.388Z,11.11
2023-04-15T20:51:47.732Z,11.23
2023-04-15T20:54:30.937Z,11.33
2023-04-15T20:57:15.694Z,11.29
2023-04-15T20:59:58.805Z,11.44
2023-04-15T21:02:45.695Z,11.58
2023-04-15T21:05:29.076Z,11.64
2023-04-15T21:08:12.977Z,11.69
2023-04-15T21:10:56.642Z,11.56
2023-04-15T21:13:41.918Z,11.48
2023-04-15T21:16:25.377Z,11.64
2023-04-15T21:19:09.140Z,11.69
2023-04-15T21:21:54.955Z,11.74
2023-04-15T21:24:38.336Z,11.77
2023-04-15T21:27:22.870Z,11.85
2023-04-15T21:30:09.259Z,11.70
2023-04-15T21:32:52.711Z,11.71
2023-04-15T21:35:36.351Z,11.75
2023-04-15T21:38:21.333Z,11.63
2023-04-15T21:41:09.756Z,11.71
2023-04-15T21:43:53.187Z,11.60
2023-04-15T21:46:37.915Z,11.58
2023-04-15T21:49:24.933Z,11.51
2023-04-15T21:52:10.128Z,11.39
2023-04-15T21:54:53.455Z,11.44
2023-04-15T21:57:36.960Z,11.44
2023-04-15T22:00:21.559Z,11.58
2023-04-15T22:03:06.623Z,11.57
2023-04-15T22:05:49.968Z,11.59
2023-04-15T22:08:44.559Z,11.69
2023-04-15T22:11:36.128Z,11.64
2023-04-15T22:14:19.424Z,11.64
2023-04-15T22:17:03.933Z,11.56
2023-04-15T22:19:48.933Z,11.50
2023-04-15T22:22:44.248Z,11.47
2023-04-15T22:25:28.695Z,11.40
2023-04-15T22:28:11.817Z,11.34
2023-04-15T22:30:56.005Z,11.38
2023-04-15T22:33:39.781Z,11.26
2023-04-15T22:36:25.446Z,11.27
2023-04-15T22:39:09.177Z,11.08
2023-04-15T22:41:52.496Z,11.11
2023-04-15T22:44:35.777Z,11.08
2023-04-15T22:47:19.739Z,11.09
2023-04-15T22:50:03.400Z,11.01
2023-04-15T22:52:48.404Z,10.89
2023-04-15T22:55:34.157Z,10.76
2023-04-15T22:58:18.682Z,10.68
2023-04-15T23:01:02.199Z,10.61
2023-04-15T23:03:57.123Z,10.53
2023-04-15T23:06:49.172Z,10.53
2023-04-15T23:09:34.144Z,10.61
2023-04-15T23:12:17.588Z,10.69
2023-04-15T23:15:01.097Z,10.68
2023-04-15T23:17:45.615Z,10.64
2023-04-15T23:20:29.098Z,10.65
2023-04-15T23:23:12.426Z,10.58
2023-04-15T23:25:56.992Z,10.52
2023-04-15T23:28:40.200Z,10.49
2023-04-15T23:31:23.788Z,10.44
2023-04-15T23:34:08.326Z,10.37
2023-04-15T23:36:51.797Z,10.19
2023-04-15T23:39:35.353Z,10.15
2023-04-15T23:42:20.395Z,10.10
2023-04-15T23:45:03.979Z,10.06
2023-04-15T23:47:47.273Z,9.95
2023-04-15T23:50:30.813Z,9.94
2023-04-15T23:53:13.965Z,9.88
2023-04-15T23:55:57.582Z,9.80
2023-04-15T23:58:42.142Z,9.76
